Thor Heyerdahl — DKQH — position and weather

sailwx.info

Track history (hours):
 
Tides and Currents Weather Stations Pressure Air Temp Water Temp Dewpoint Dewpoint Depression Visibility Wind Speed Wind Dir Waves Ship Positions

Thor Heyerdahl

Last reported at 2017-May-27 19:42 UTC. Time now 2017-May-28 16:35 UTC.
Position N 54°36' E 010°18'.

beam 6.5 m; draft 2.2 m.

Type: Sailing vessel. MMSI: 211232340.

Date/timePositionNaut miles runAvg speedWind from/ knotsBaromVisibWave heightAir tempDewpointWater temp
2017-May-27 19:42N 54°36' E 010°18'1 3.4
2017-May-27 19:29N 54°36' E 010°18'2 3.7
2017-May-27 19:00N 54°38' E 010°20'2 3.7
2017-May-27 18:30N 54°39' E 010°22'2 3.5
2017-May-27 17:53N 54°41' E 010°24'2 4.2
2017-May-27 17:30N 54°42' E 010°26'2 4.5
2017-May-27 17:00N 54°44' E 010°28'3 5.1
2017-May-27 16:27N 54°46' E 010°30'3 6.0
2017-May-27 16:00N 54°49' E 010°32'2 4.5
2017-May-27 15:30N 54°51' E 010°32'0 0.1
2017-May-27 11:43N 54°51' E 010°31'0 0.0
2017-May-27 10:43N 54°51' E 010°31'1 3.6
2017-May-27 10:30N 54°51' E 010°32'1 0.2
2017-May-27 06:20N 54°50' E 010°31'0 0.0
2017-May-27 05:56N 54°50' E 010°31'0 0.0
2017-May-27 05:05N 54°50' E 010°31'0 0.0
2017-May-27 04:41N 54°50' E 010°31'0 0.0
2017-May-27 04:29N 54°50' E 010°31'0 0.0
2017-May-27 03:56N 54°50' E 010°31'0 0.0
2017-May-27 03:20N 54°50' E 010°31'0 0.0
2017-May-27 00:23N 54°50' E 010°31'0 0.0
2017-May-26 23:59N 54°50' E 010°31'0 0.0
2017-May-26 22:53N 54°50' E 010°31'0 0.0
2017-May-26 22:17N 54°50' E 010°31'0 0.0
2017-May-26 21:47N 54°50' E 010°31'0 0.0
2017-May-26 21:14N 54°50' E 010°31'0 0.0
2017-May-26 20:50N 54°50' E 010°31'0 0.0
2017-May-26 20:23N 54°50' E 010°31'0 0.0
2017-May-26 19:56N 54°50' E 010°31'0 0.0
2017-May-26 18:59N 54°50' E 010°31'0 0.0
2017-May-26 18:30N 54°50' E 010°31'2 4.8
2017-May-26 18:00N 54°48' E 010°31'3 6.9
2017-May-26 17:30N 54°45' E 010°32'3 6.9
2017-May-26 17:00N 54°41' E 010°33'4 6.9
2017-May-26 16:29N 54°38' E 010°34'  
2017-May-22 16:50N 54°51' E 010°03'2 5.8
2017-May-22 16:28N 54°49' E 010°04'3 4.1
2017-May-22 15:44N 54°46' E 010°04'1 1.7
2017-May-22 15:23N 54°45' E 010°05'1 1.8
2017-May-22 14:51N 54°44' E 010°06'1 1.8
2017-May-22 14:28N 54°44' E 010°06'  
Track history (hours):
 
Tides and Currents Weather Stations Pressure Air Temp Water Temp Dewpoint Dewpoint Depression Visibility Wind Speed Wind Dir Waves Ship Positions

Thor Heyerdahl

Last reported at 2017-May-27 19:42 UTC. Time now 2017-May-28 16:35 UTC.
Position N 54°36' E 010°18'.

beam 6.5 m; draft 2.2 m.

Type: Sailing vessel. MMSI: 211232340.

Date/timePositionNaut miles runAvg speedWind from/ knotsBaromVisibWave heightAir tempDewpointWater temp
2017-May-27 19:42N 54°36' E 010°18'1 3.4
2017-May-27 19:29N 54°36' E 010°18'2 3.7
2017-May-27 19:00N 54°38' E 010°20'2 3.7
2017-May-27 18:30N 54°39' E 010°22'2 3.5
2017-May-27 17:53N 54°41' E 010°24'2 4.2
2017-May-27 17:30N 54°42' E 010°26'2 4.5
2017-May-27 17:00N 54°44' E 010°28'3 5.1
2017-May-27 16:27N 54°46' E 010°30'3 6.0
2017-May-27 16:00N 54°49' E 010°32'2 4.5
2017-May-27 15:30N 54°51' E 010°32'0 0.1
2017-May-27 11:43N 54°51' E 010°31'0 0.0
2017-May-27 10:43N 54°51' E 010°31'1 3.6
2017-May-27 10:30N 54°51' E 010°32'1 0.2
2017-May-27 06:20N 54°50' E 010°31'0 0.0
2017-May-27 05:56N 54°50' E 010°31'0 0.0
2017-May-27 05:05N 54°50' E 010°31'0 0.0
2017-May-27 04:41N 54°50' E 010°31'0 0.0
2017-May-27 04:29N 54°50' E 010°31'0 0.0
2017-May-27 03:56N 54°50' E 010°31'0 0.0
2017-May-27 03:20N 54°50' E 010°31'0 0.0
2017-May-27 00:23N 54°50' E 010°31'0 0.0
2017-May-26 23:59N 54°50' E 010°31'0 0.0
2017-May-26 22:53N 54°50' E 010°31'0 0.0
2017-May-26 22:17N 54°50' E 010°31'0 0.0
2017-May-26 21:47N 54°50' E 010°31'0 0.0
2017-May-26 21:14N 54°50' E 010°31'0 0.0
2017-May-26 20:50N 54°50' E 010°31'0 0.0
2017-May-26 20:23N 54°50' E 010°31'0 0.0
2017-May-26 19:56N 54°50' E 010°31'0 0.0
2017-May-26 18:59N 54°50' E 010°31'0 0.0
2017-May-26 18:30N 54°50' E 010°31'2 4.8
2017-May-26 18:00N 54°48' E 010°31'3 6.9
2017-May-26 17:30N 54°45' E 010°32'3 6.9
2017-May-26 17:00N 54°41' E 010°33'4 6.9
2017-May-26 16:29N 54°38' E 010°34'  
2017-May-22 16:50N 54°51' E 010°03'2 5.8
2017-May-22 16:28N 54°49' E 010°04'3 4.1
2017-May-22 15:44N 54°46' E 010°04'1 1.7
2017-May-22 15:23N 54°45' E 010°05'1 1.8
2017-May-22 14:51N 54°44' E 010°06'1 1.8
2017-May-22 14:28N 54°44' E 010°06'  

Dump ship's entire track history